sensor_id;sensor_type;location;lat;lon;timestamp;P1;P2;P0
46302;PMS7003;32029;51.358;5.628;2022-08-01T00:00:52;5.20;3.00;3.00
46302;PMS7003;32029;51.358;5.628;2022-08-01T00:03:18;3.67;3.67;3.33
46302;PMS7003;32029;51.358;5.628;2022-08-01T00:05:45;6.00;3.33;3.00
46302;PMS7003;32029;51.358;5.628;2022-08-01T00:08:13;4.20;4.20;3.00
46302;PMS7003;32029;51.358;5.628;2022-08-01T00:10:40;8.33;5.33;4.00
46302;PMS7003;32029;51.358;5.628;2022-08-01T00:13:07;3.67;3.33;3.33
46302;PMS7003;32029;51.358;5.628;2022-08-01T00:15:35;7.00;6.00;4.80
46302;PMS7003;32029;51.358;5.628;2022-08-01T00:18:02;3.40;3.40;2.60
46302;PMS7003;32029;51.358;5.628;2022-08-01T00:20:30;4.60;4.60;2.80
46302;PMS7003;32029;51.358;5.628;2022-08-01T00:22:58;6.00;4.20;3.40
46302;PMS7003;32029;51.358;5.628;2022-08-01T00:25:25;6.33;4.00;3.00
46302;PMS7003;32029;51.358;5.628;2022-08-01T00:27:51;5.33;4.00;3.33
46302;PMS7003;32029;51.358;5.628;2022-08-01T00:30:20;8.60;5.80;3.80
46302;PMS7003;32029;51.358;5.628;2022-08-01T00:32:47;5.00;3.33;2.67
46302;PMS7003;32029;51.358;5.628;2022-08-01T00:35:14;4.33;4.33;3.00
46302;PMS7003;32029;51.358;5.628;2022-08-01T00:37:41;4.00;4.00;3.33
46302;PMS7003;32029;51.358;5.628;2022-08-01T00:40:09;4.00;3.00;3.00
46302;PMS7003;32029;51.358;5.628;2022-08-01T00:42:37;6.00;6.00;5.00
46302;PMS7003;32029;51.358;5.628;2022-08-01T00:45:04;7.33;4.33;4.00
46302;PMS7003;32029;51.358;5.628;2022-08-01T00:47:32;4.80;3.60;2.40
46302;PMS7003;32029;51.358;5.628;2022-08-01T00:50:00;5.40;4.60;3.60
46302;PMS7003;32029;51.358;5.628;2022-08-01T00:52:27;5.00;4.00;3.67
46302;PMS7003;32029;51.358;5.628;2022-08-01T00:54:55;6.00;3.60;3.40
46302;PMS7003;32029;51.358;5.628;2022-08-01T00:57:23;6.00;6.00;4.20
46302;PMS7003;32029;51.358;5.628;2022-08-01T00:59:51;6.00;5.00;4.00
46302;PMS7003;32029;51.358;5.628;2022-08-01T01:02:19;5.00;5.00;4.00
46302;PMS7003;32029;51.358;5.628;2022-08-01T01:04:46;5.67;4.33;3.33
46302;PMS7003;32029;51.358;5.628;2022-08-01T01:07:19;6.20;5.00;3.60
46302;PMS7003;32029;51.358;5.628;2022-08-01T01:16:05;6.20;6.20;4.40
46302;PMS7003;32029;51.358;5.628;2022-08-01T01:18:54;12.00;8.67;5.00
46302;PMS7003;32029;51.358;5.628;2022-08-01T01:24:26;7.33;7.33;5.00
46302;PMS7003;32029;51.358;5.628;2022-08-01T01:27:18;6.67;6.67;5.00
46302;PMS7003;32029;51.358;5.628;2022-08-01T01:30:01;8.60;5.60;4.80
46302;PMS7003;32029;51.358;5.628;2022-08-01T01:32:36;9.33;6.33;4.33
46302;PMS7003;32029;51.358;5.628;2022-08-01T01:35:14;9.40;7.80;6.20
46302;PMS7003;32029;51.358;5.628;2022-08-01T01:37:47;7.80;6.80;4.60
46302;PMS7003;32029;51.358;5.628;2022-08-01T01:40:18;7.20;7.20;5.60
46302;PMS7003;32029;51.358;5.628;2022-08-01T01:42:48;6.00;5.80;5.00
46302;PMS7003;32029;51.358;5.628;2022-08-01T01:45:17;8.60;6.80;5.80
46302;PMS7003;32029;51.358;5.628;2022-08-01T01:47:45;10.00;8.00;6.00
46302;PMS7003;32029;51.358;5.628;2022-08-01T01:50:13;6.60;6.60;4.60
46302;PMS7003;32029;51.358;5.628;2022-08-01T01:52:41;7.33;7.33;5.67
46302;PMS7003;32029;51.358;5.628;2022-08-01T01:55:11;6.40;6.40;5.00
46302;PMS7003;32029;51.358;5.628;2022-08-01T01:57:40;8.67;6.33;4.67
46302;PMS7003;32029;51.358;5.628;2022-08-01T02:00:10;7.60;6.60;5.60
46302;PMS7003;32029;51.358;5.628;2022-08-01T02:02:39;7.67;6.33;5.00
46302;PMS7003;32029;51.358;5.628;2022-08-01T02:05:10;7.20;7.20;6.00
46302;PMS7003;32029;51.358;5.628;2022-08-01T02:07:38;9.67;9.67;6.67
46302;PMS7003;32029;51.358;5.628;2022-08-01T02:10:07;11.60;10.00;7.00
46302;PMS7003;32029;51.358;5.628;2022-08-01T02:12:37;11.40;9.00;7.00
46302;PMS7003;32029;51.358;5.628;2022-08-01T02:15:08;10.00;9.80;7.00
46302;PMS7003;32029;51.358;5.628;2022-08-01T02:17:37;16.67;10.33;7.33
46302;PMS7003;32029;51.358;5.628;2022-08-01T02:20:08;12.00;9.67;7.67
46302;PMS7003;32029;51.358;5.628;2022-08-01T02:22:37;12.40;9.80;7.60
46302;PMS7003;32029;51.358;5.628;2022-08-01T02:25:15;15.00;9.33;7.33
46302;PMS7003;32029;51.358;5.628;2022-08-01T02:27:56;11.67;10.00;7.33
46302;PMS7003;32029;51.358;5.628;2022-08-01T02:30:26;9.00;9.00;7.00
46302;PMS7003;32029;51.358;5.628;2022-08-01T02:32:59;12.67;10.33;9.00
46302;PMS7003;32029;51.358;5.628;2022-08-01T02:35:32;13.00;11.00;8.67
46302;PMS7003;32029;51.358;5.628;2022-08-01T02:38:04;12.40;7.80;5.60
46302;PMS7003;32029;51.358;5.628;2022-08-01T02:40:35;13.67;12.00;9.00
46302;PMS7003;32029;51.358;5.628;2022-08-01T02:43:06;11.00;8.33;6.00
46302;PMS7003;32029;51.358;5.628;2022-08-01T02:45:37;11.00;11.00;7.00
46302;PMS7003;32029;51.358;5.628;2022-08-01T02:48:10;11.20;11.20;8.40
46302;PMS7003;32029;51.358;5.628;2022-08-01T02:50:39;10.67;9.00;7.00
46302;PMS7003;32029;51.358;5.628;2022-08-01T02:53:09;12.33;10.33;9.33
46302;PMS7003;32029;51.358;5.628;2022-08-01T02:55:38;10.67;9.33;8.00
46302;PMS7003;32029;51.358;5.628;2022-08-01T02:58:08;12.20;10.60;8.40
46302;PMS7003;32029;51.358;5.628;2022-08-01T03:00:36;12.00;11.00;8.00
46302;PMS7003;32029;51.358;5.628;2022-08-01T03:03:06;13.33;13.33;8.00
46302;PMS7003;32029;51.358;5.628;2022-08-01T03:05:35;12.67;9.00;7.00
46302;PMS7003;32029;51.358;5.628;2022-08-01T03:08:06;13.33;12.33;10.33
46302;PMS7003;32029;51.358;5.628;2022-08-01T03:10:35;14.67;11.67;8.00
46302;PMS7003;32029;51.358;5.628;2022-08-01T03:13:04;14.00;12.33;9.00
46302;PMS7003;32029;51.358;5.628;2022-08-01T03:15:34;14.00;10.00;7.00
46302;PMS7003;32029;51.358;5.628;2022-08-01T03:18:04;13.33;12.00;7.00
46302;PMS7003;32029;51.358;5.628;2022-08-01T03:20:33;10.00;10.00;7.33
46302;PMS7003;32029;51.358;5.628;2022-08-01T03:23:01;10.67;10.33;7.33
46302;PMS7003;32029;51.358;5.628;2022-08-01T03:25:32;12.67;11.33;8.33
46302;PMS7003;32029;51.358;5.628;2022-08-01T03:28:04;13.40;11.80;9.00
46302;PMS7003;32029;51.358;5.628;2022-08-01T03:30:32;14.33;11.33;9.00
46302;PMS7003;32029;51.358;5.628;2022-08-01T03:33:02;10.00;9.33;7.33
46302;PMS7003;32029;51.358;5.628;2022-08-01T03:35:30;10.33;9.33;7.33
46302;PMS7003;32029;51.358;5.628;2022-08-01T03:38:01;13.67;12.67;9.33
46302;PMS7003;32029;51.358;5.628;2022-08-01T03:43:11;16.33;10.33;8.00
46302;PMS7003;32029;51.358;5.628;2022-08-01T03:45:46;11.20;9.40;8.20
46302;PMS7003;32029;51.358;5.628;2022-08-01T03:48:18;14.00;9.00;7.33
46302;PMS7003;32029;51.358;5.628;2022-08-01T03:50:50;11.33;10.33;8.67
46302;PMS7003;32029;51.358;5.628;2022-08-01T03:53:22;13.33;11.00;7.67
46302;PMS7003;32029;51.358;5.628;2022-08-01T03:55:52;11.40;10.00;7.60
46302;PMS7003;32029;51.358;5.628;2022-08-01T03:58:20;14.00;11.33;8.00
46302;PMS7003;32029;51.358;5.628;2022-08-01T04:00:47;13.00;12.00;10.00
46302;PMS7003;32029;51.358;5.628;2022-08-01T04:03:15;13.33;13.00;10.67
46302;PMS7003;32029;51.358;5.628;2022-08-01T04:05:43;16.33;12.67;10.00
46302;PMS7003;32029;51.358;5.628;2022-08-01T04:08:10;14.33;12.67;8.00
46302;PMS7003;32029;51.358;5.628;2022-08-01T04:10:37;11.00;10.00;9.00
46302;PMS7003;32029;51.358;5.628;2022-08-01T04:13:04;14.67;13.67;10.00
46302;PMS7003;32029;51.358;5.628;2022-08-01T04:15:32;13.50;12.17;8.50
46302;PMS7003;32029;51.358;5.628;2022-08-01T04:17:59;13.33;10.67;6.67
46302;PMS7003;32029;51.358;5.628;2022-08-01T04:20:26;15.67;12.67;9.67
46302;PMS7003;32029;51.358;5.628;2022-08-01T04:22:53;11.00;11.00;7.33
46302;PMS7003;32029;51.358;5.628;2022-08-01T04:25:28;11.00;10.00;7.67
46302;PMS7003;32029;51.358;5.628;2022-08-01T04:28:00;12.00;11.00;8.00
46302;PMS7003;32029;51.358;5.628;2022-08-01T04:30:31;12.00;11.67;8.67
46302;PMS7003;32029;51.358;5.628;2022-08-01T04:33:02;13.67;12.33;8.33
46302;PMS7003;32029;51.358;5.628;2022-08-01T04:35:34;17.50;14.50;9.50
46302;PMS7003;32029;51.358;5.628;2022-08-01T04:38:07;17.00;13.33;10.00
46302;PMS7003;32029;51.358;5.628;2022-08-01T04:40:37;12.60;10.40;8.00
46302;PMS7003;32029;51.358;5.628;2022-08-01T04:43:06;15.00;14.00;7.67
46302;PMS7003;32029;51.358;5.628;2022-08-01T04:45:34;11.00;10.00;7.33
46302;PMS7003;32029;51.358;5.628;2022-08-01T04:48:04;14.67;13.00;8.33
46302;PMS7003;32029;51.358;5.628;2022-08-01T04:50:34;11.40;9.20;6.60
46302;PMS7003;32029;51.358;5.628;2022-08-01T04:53:03;8.40;6.60;6.20
46302;PMS7003;32029;51.358;5.628;2022-08-01T04:55:30;13.67;11.67;8.67
46302;PMS7003;32029;51.358;5.628;2022-08-01T04:57:57;14.67;11.67;9.33
46302;PMS7003;32029;51.358;5.628;2022-08-01T05:00:24;12.67;10.33;8.33
46302;PMS7003;32029;51.358;5.628;2022-08-01T05:02:51;11.67;11.00;7.00
46302;PMS7003;32029;51.358;5.628;2022-08-01T05:05:18;13.00;12.00;7.33
46302;PMS7003;32029;51.358;5.628;2022-08-01T05:07:44;10.00;9.00;6.33
46302;PMS7003;32029;51.358;5.628;2022-08-01T05:10:12;11.40;9.80;7.60
46302;PMS7003;32029;51.358;5.628;2022-08-01T05:12:39;12.33;9.67;7.00
46302;PMS7003;32029;51.358;5.628;2022-08-01T05:15:06;12.33;9.00;7.00
46302;PMS7003;32029;51.358;5.628;2022-08-01T05:17:34;11.20;8.80;6.60
46302;PMS7003;32029;51.358;5.628;2022-08-01T05:20:02;11.60;9.80;6.60
46302;PMS7003;32029;51.358;5.628;2022-08-01T05:22:29;12.00;10.00;7.00
46302;PMS7003;32029;51.358;5.628;2022-08-01T05:24:56;13.00;11.33;8.33
46302;PMS7003;32029;51.358;5.628;2022-08-01T05:27:24;10.00;8.20;6.00
46302;PMS7003;32029;51.358;5.628;2022-08-01T05:29:52;14.33;12.00;9.00
46302;PMS7003;32029;51.358;5.628;2022-08-01T05:32:19;9.80;9.00;7.80
46302;PMS7003;32029;51.358;5.628;2022-08-01T05:34:47;9.80;9.80;7.40
46302;PMS7003;32029;51.358;5.628;2022-08-01T05:37:14;10.33;10.33;8.00
46302;PMS7003;32029;51.358;5.628;2022-08-01T05:39:42;10.00;8.80;6.60
46302;PMS7003;32029;51.358;5.628;2022-08-01T05:42:10;10.00;9.00;6.40
46302;PMS7003;32029;51.358;5.628;2022-08-01T05:44:38;9.00;8.00;6.40
46302;PMS7003;32029;51.358;5.628;2022-08-01T05:47:04;12.67;9.67;7.67
46302;PMS7003;32029;51.358;5.628;2022-08-01T05:49:32;11.67;10.33;7.00
46302;PMS7003;32029;51.358;5.628;2022-08-01T05:52:00;8.40;8.40;6.60
46302;PMS7003;32029;51.358;5.628;2022-08-01T05:54:28;13.33;10.33;8.00
46302;PMS7003;32029;51.358;5.628;2022-08-01T05:56:55;11.60;8.00;6.40
46302;PMS7003;32029;51.358;5.628;2022-08-01T05:59:30;9.60;9.40;7.80
46302;PMS7003;32029;51.358;5.628;2022-08-01T06:01:57;15.33;14.00;9.00
46302;PMS7003;32029;51.358;5.628;2022-08-01T06:04:23;16.00;11.00;8.67
46302;PMS7003;32029;51.358;5.628;2022-08-01T06:06:50;14.00;12.00;9.67
46302;PMS7003;32029;51.358;5.628;2022-08-01T06:09:17;12.00;11.00;7.00
46302;PMS7003;32029;51.358;5.628;2022-08-01T06:11:44;13.00;9.33;7.00
46302;PMS7003;32029;51.358;5.628;2022-08-01T06:14:11;11.67;9.33;7.00
46302;PMS7003;32029;51.358;5.628;2022-08-01T06:16:39;13.00;9.60;6.00
46302;PMS7003;32029;51.358;5.628;2022-08-01T06:19:05;12.33;11.33;7.33
46302;PMS7003;32029;51.358;5.628;2022-08-01T06:21:32;12.67;10.67;7.67
46302;PMS7003;32029;51.358;5.628;2022-08-01T06:23:59;13.33;10.33;8.00
46302;PMS7003;32029;51.358;5.628;2022-08-01T06:26:26;11.67;10.00;7.00
46302;PMS7003;32029;51.358;5.628;2022-08-01T06:28:53;13.00;11.33;8.00
46302;PMS7003;32029;51.358;5.628;2022-08-01T06:31:21;13.80;9.60;7.20
46302;PMS7003;32029;51.358;5.628;2022-08-01T06:33:47;12.00;9.67;7.33
46302;PMS7003;32029;51.358;5.628;2022-08-01T06:36:14;1.67;1.00;1.00
46302;PMS7003;32029;51.358;5.628;2022-08-01T06:38:41;16.67;11.67;8.00
46302;PMS7003;32029;51.358;5.628;2022-08-01T06:41:08;11.00;11.00;6.33
46302;PMS7003;32029;51.358;5.628;2022-08-01T06:43:35;13.00;9.00;6.00
46302;PMS7003;32029;51.358;5.628;2022-08-01T06:46:02;8.00;6.33;5.33
46302;PMS7003;32029;51.358;5.628;2022-08-01T06:48:29;12.00;8.67;6.33
46302;PMS7003;32029;51.358;5.628;2022-08-01T06:50:56;9.67;6.33;4.33
46302;PMS7003;32029;51.358;5.628;2022-08-01T06:53:36;11.80;9.80;7.60
46302;PMS7003;32029;51.358;5.628;2022-08-01T06:56:05;10.60;9.60;7.80
46302;PMS7003;32029;51.358;5.628;2022-08-01T06:58:33;8.00;8.00;6.00
46302;PMS7003;32029;51.358;5.628;2022-08-01T07:01:02;10.00;8.00;6.00
46302;PMS7003;32029;51.358;5.628;2022-08-01T07:03:33;7.00;5.40;3.00
46302;PMS7003;32029;51.358;5.628;2022-08-01T07:06:01;10.80;6.40;4.20
46302;PMS7003;32029;51.358;5.628;2022-08-01T07:08:29;8.40;8.40;5.00
46302;PMS7003;32029;51.358;5.628;2022-08-01T07:10:57;5.80;5.20;4.40
46302;PMS7003;32029;51.358;5.628;2022-08-01T07:13:26;4.60;4.00;3.20
46302;PMS7003;32029;51.358;5.628;2022-08-01T07:15:53;2.00;2.00;1.00
46302;PMS7003;32029;51.358;5.628;2022-08-01T07:18:21;1.00;1.00;0.00
46302;PMS7003;32029;51.358;5.628;2022-08-01T07:20:49;0.00;0.00;0.00
46302;PMS7003;32029;51.358;5.628;2022-08-01T07:23:16;0.00;0.00;0.00
46302;PMS7003;32029;51.358;5.628;2022-08-01T07:25:43;2.00;1.00;0.00
46302;PMS7003;32029;51.358;5.628;2022-08-01T07:28:09;1.00;0.33;0.00
46302;PMS7003;32029;51.358;5.628;2022-08-01T07:30:36;1.00;0.00;0.00
46302;PMS7003;32029;51.358;5.628;2022-08-01T07:33:03;3.00;1.67;1.00
46302;PMS7003;32029;51.358;5.628;2022-08-01T07:35:29;1.00;0.00;0.00
46302;PMS7003;32029;51.358;5.628;2022-08-01T07:37:57;1.00;1.00;1.00
46302;PMS7003;32029;51.358;5.628;2022-08-01T07:40:23;1.00;0.67;0.33
46302;PMS7003;32029;51.358;5.628;2022-08-01T07:42:50;1.00;1.00;0.00
46302;PMS7003;32029;51.358;5.628;2022-08-01T07:45:17;0.00;0.00;0.00
46302;PMS7003;32029;51.358;5.628;2022-08-01T07:47:43;0.00;0.00;0.00
46302;PMS7003;32029;51.358;5.628;2022-08-01T07:50:11;0.00;0.00;0.00
46302;PMS7003;32029;51.358;5.628;2022-08-01T07:52:38;0.00;0.00;0.00
46302;PMS7003;32029;51.358;5.628;2022-08-01T07:55:05;1.33;1.33;1.00
46302;PMS7003;32029;51.358;5.628;2022-08-01T07:57:32;0.00;0.00;0.00
46302;PMS7003;32029;51.358;5.628;2022-08-01T07:59:59;0.00;0.00;0.00
46302;PMS7003;32029;51.358;5.628;2022-08-01T08:02:27;0.00;0.00;0.00
46302;PMS7003;32029;51.358;5.628;2022-08-01T08:04:54;0.00;0.00;0.00
46302;PMS7003;32029;51.358;5.628;2022-08-01T08:07:22;0.40;0.00;0.00
46302;PMS7003;32029;51.358;5.628;2022-08-01T08:09:48;0.00;0.00;0.00
46302;PMS7003;32029;51.358;5.628;2022-08-01T08:12:15;0.00;0.00;0.00
46302;PMS7003;32029;51.358;5.628;2022-08-01T08:14:42;0.00;0.00;0.00
46302;PMS7003;32029;51.358;5.628;2022-08-01T08:17:09;0.33;0.00;0.00
46302;PMS7003;32029;51.358;5.628;2022-08-01T08:19:35;0.00;0.00;0.00
46302;PMS7003;32029;51.358;5.628;2022-08-01T08:22:05;0.00;0.00;0.00
46302;PMS7003;32029;51.358;5.628;2022-08-01T08:24:33;0.00;0.00;0.00
46302;PMS7003;32029;51.358;5.628;2022-08-01T08:27:01;0.00;0.00;0.00
46302;PMS7003;32029;51.358;5.628;2022-08-01T08:29:29;0.00;0.00;0.00
46302;PMS7003;32029;51.358;5.628;2022-08-01T08:31:59;0.00;0.00;0.00
46302;PMS7003;32029;51.358;5.628;2022-08-01T08:34:27;0.33;0.00;0.00
46302;PMS7003;32029;51.358;5.628;2022-08-01T08:36:54;1.00;0.00;0.00
46302;PMS7003;32029;51.358;5.628;2022-08-01T08:39:22;0.00;0.00;0.00
46302;PMS7003;32029;51.358;5.628;2022-08-01T08:41:48;1.00;0.00;0.00
46302;PMS7003;32029;51.358;5.628;2022-08-01T08:44:16;0.67;0.00;0.00
46302;PMS7003;32029;51.358;5.628;2022-08-01T08:46:45;0.00;0.00;0.00
46302;PMS7003;32029;51.358;5.628;2022-08-01T08:49:20;0.00;0.00;0.00
46302;PMS7003;32029;51.358;5.628;2022-08-01T08:51:50;0.00;0.00;0.00
46302;PMS7003;32029;51.358;5.628;2022-08-01T08:54:18;0.00;0.00;0.00
46302;PMS7003;32029;51.358;5.628;2022-08-01T08:56:48;0.00;0.00;0.00
46302;PMS7003;32029;51.358;5.628;2022-08-01T08:59:16;0.67;0.00;0.00
46302;PMS7003;32029;51.358;5.628;2022-08-01T09:01:43;0.00;0.00;0.00
46302;PMS7003;32029;51.358;5.628;2022-08-01T09:04:10;0.00;0.00;0.00
46302;PMS7003;32029;51.358;5.628;2022-08-01T09:06:39;0.40;0.00;0.00
46302;PMS7003;32029;51.358;5.628;2022-08-01T09:09:07;0.00;0.00;0.00
46302;PMS7003;32029;51.358;5.628;2022-08-01T09:11:35;0.00;0.00;0.00
46302;PMS7003;32029;51.358;5.628;2022-08-01T09:16:35;0.67;0.00;0.00
46302;PMS7003;32029;51.358;5.628;2022-08-01T09:19:06;0.00;0.00;0.00
46302;PMS7003;32029;51.358;5.628;2022-08-01T09:21:40;0.00;0.00;0.00
46302;PMS7003;32029;51.358;5.628;2022-08-01T09:24:23;0.67;0.00;0.00
46302;PMS7003;32029;51.358;5.628;2022-08-01T09:26:52;0.00;0.00;0.00
46302;PMS7003;32029;51.358;5.628;2022-08-01T09:29:20;0.00;0.00;0.00
46302;PMS7003;32029;51.358;5.628;2022-08-01T09:31:51;0.33;0.00;0.00
46302;PMS7003;32029;51.358;5.628;2022-08-01T09:34:28;1.00;0.00;0.00
46302;PMS7003;32029;51.358;5.628;2022-08-01T09:36:58;0.00;0.00;0.00
46302;PMS7003;32029;51.358;5.628;2022-08-01T09:39:27;0.00;0.00;0.00
46302;PMS7003;32029;51.358;5.628;2022-08-01T09:41:56;1.00;1.00;0.00
46302;PMS7003;32029;51.358;5.628;2022-08-01T09:44:37;0.00;0.00;0.00
46302;PMS7003;32029;51.358;5.628;2022-08-01T09:47:08;0.00;0.00;0.00
46302;PMS7003;32029;51.358;5.628;2022-08-01T09:49:37;0.80;0.80;0.00
46302;PMS7003;32029;51.358;5.628;2022-08-01T09:52:19;1.00;1.00;1.00
46302;PMS7003;32029;51.358;5.628;2022-08-01T09:54:58;0.00;0.00;0.00
46302;PMS7003;32029;51.358;5.628;2022-08-01T09:57:26;1.00;1.00;1.00
46302;PMS7003;32029;51.358;5.628;2022-08-01T09:59:55;2.33;1.00;0.67
46302;PMS7003;32029;51.358;5.628;2022-08-01T10:02:28;3.67;3.00;2.00
46302;PMS7003;32029;51.358;5.628;2022-08-01T10:05:04;4.00;3.00;2.80
46302;PMS7003;32029;51.358;5.628;2022-08-01T10:07:34;3.00;3.00;2.00
46302;PMS7003;32029;51.358;5.628;2022-08-01T10:10:09;4.60;3.20;3.00
46302;PMS7003;32029;51.358;5.628;2022-08-01T10:12:42;2.00;2.00;2.00
46302;PMS7003;32029;51.358;5.628;2022-08-01T10:15:10;2.80;2.80;2.00
46302;PMS7003;32029;51.358;5.628;2022-08-01T10:17:38;5.00;3.00;2.33
46302;PMS7003;32029;51.358;5.628;2022-08-01T10:20:08;5.20;4.00;3.80
46302;PMS7003;32029;51.358;5.628;2022-08-01T10:22:35;4.00;1.33;1.00
46302;PMS7003;32029;51.358;5.628;2022-08-01T10:25:03;2.00;2.00;1.67
46302;PMS7003;32029;51.358;5.628;2022-08-01T10:27:32;1.00;1.00;1.00
46302;PMS7003;32029;51.358;5.628;2022-08-01T10:30:04;2.00;2.00;2.00
46302;PMS7003;32029;51.358;5.628;2022-08-01T10:32:35;1.60;1.00;1.00
46302;PMS7003;32029;51.358;5.628;2022-08-01T10:35:03;1.00;1.00;1.00
46302;PMS7003;32029;51.358;5.628;2022-08-01T10:37:33;4.00;3.00;2.20
46302;PMS7003;32029;51.358;5.628;2022-08-01T10:40:05;2.00;2.00;1.20
46302;PMS7003;32029;51.358;5.628;2022-08-01T10:42:34;2.00;1.00;1.00
46302;PMS7003;32029;51.358;5.628;2022-08-01T10:45:03;4.00;1.20;1.00
46302;PMS7003;32029;51.358;5.628;2022-08-01T10:47:53;2.00;2.00;1.67
46302;PMS7003;32029;51.358;5.628;2022-08-01T10:58:24;2.80;2.80;2.20
46302;PMS7003;32029;51.358;5.628;2022-08-01T11:03:46;3.20;2.00;1.80
46302;PMS7003;32029;51.358;5.628;2022-08-01T11:06:25;2.00;2.00;1.33
46302;PMS7003;32029;51.358;5.628;2022-08-01T11:09:05;2.00;1.33;1.00
46302;PMS7003;32029;51.358;5.628;2022-08-01T11:12:04;2.00;1.00;0.60
46302;PMS7003;32029;51.358;5.628;2022-08-01T11:17:33;0.00;0.00;0.00
46302;PMS7003;32029;51.358;5.628;2022-08-01T11:25:26;1.60;1.60;1.60
46302;PMS7003;32029;51.358;5.628;2022-08-01T11:30:49;0.00;0.00;0.00
46302;PMS7003;32029;51.358;5.628;2022-08-01T11:38:37;0.00;0.00;0.00
46302;PMS7003;32029;51.358;5.628;2022-08-01T11:41:17;0.00;0.00;0.00
46302;PMS7003;32029;51.358;5.628;2022-08-01T11:44:04;0.00;0.00;0.00
46302;PMS7003;32029;51.358;5.628;2022-08-01T11:46:48;0.33;0.00;0.00
46302;PMS7003;32029;51.358;5.628;2022-08-01T11:52:03;0.00;0.00;0.00
46302;PMS7003;32029;51.358;5.628;2022-08-01T11:54:33;0.00;0.00;0.00
46302;PMS7003;32029;51.358;5.628;2022-08-01T11:57:04;0.33;0.00;0.00
46302;PMS7003;32029;51.358;5.628;2022-08-01T11:59:37;0.00;0.00;0.00
46302;PMS7003;32029;51.358;5.628;2022-08-01T12:02:04;0.00;0.00;0.00
46302;PMS7003;32029;51.358;5.628;2022-08-01T12:04:54;0.00;0.00;0.00
46302;PMS7003;32029;51.358;5.628;2022-08-01T12:07:21;1.00;0.00;0.00
46302;PMS7003;32029;51.358;5.628;2022-08-01T12:09:56;0.00;0.00;0.00
46302;PMS7003;32029;51.358;5.628;2022-08-01T12:12:25;0.00;0.00;0.00
46302;PMS7003;32029;51.358;5.628;2022-08-01T12:14:53;0.00;0.00;0.00
46302;PMS7003;32029;51.358;5.628;2022-08-01T12:17:29;0.20;0.20;0.20
46302;PMS7003;32029;51.358;5.628;2022-08-01T12:20:01;0.00;0.00;0.00
46302;PMS7003;32029;51.358;5.628;2022-08-01T12:22:29;0.00;0.00;0.00
46302;PMS7003;32029;51.358;5.628;2022-08-01T12:25:04;1.00;0.00;0.00
46302;PMS7003;32029;51.358;5.628;2022-08-01T12:27:38;0.86;0.00;0.00
46302;PMS7003;32029;51.358;5.628;2022-08-01T12:30:06;1.33;0.00;0.00
46302;PMS7003;32029;51.358;5.628;2022-08-01T12:32:36;0.00;0.00;0.00
46302;PMS7003;32029;51.358;5.628;2022-08-01T12:35:06;0.00;0.00;0.00
46302;PMS7003;32029;51.358;5.628;2022-08-01T12:37:41;0.00;0.00;0.00
46302;PMS7003;32029;51.358;5.628;2022-08-01T12:40:18;0.00;0.00;0.00
46302;PMS7003;32029;51.358;5.628;2022-08-01T12:42:49;0.00;0.00;0.00
46302;PMS7003;32029;51.358;5.628;2022-08-01T12:45:18;0.00;0.00;0.00
46302;PMS7003;32029;51.358;5.628;2022-08-01T12:47:56;0.00;0.00;0.00
46302;PMS7003;32029;51.358;5.628;2022-08-01T12:50:26;0.00;0.00;0.00
46302;PMS7003;32029;51.358;5.628;2022-08-01T12:52:57;0.20;0.20;0.00
46302;PMS7003;32029;51.358;5.628;2022-08-01T12:55:26;0.40;0.00;0.00
46302;PMS7003;32029;51.358;5.628;2022-08-01T13:00:32;0.00;0.00;0.00
46302;PMS7003;32029;51.358;5.628;2022-08-01T13:03:07;0.60;0.00;0.00
46302;PMS7003;32029;51.358;5.628;2022-08-01T13:05:42;0.00;0.00;0.00
46302;PMS7003;32029;51.358;5.628;2022-08-01T13:08:15;0.00;0.00;0.00
46302;PMS7003;32029;51.358;5.628;2022-08-01T13:10:46;0.00;0.00;0.00
46302;PMS7003;32029;51.358;5.628;2022-08-01T13:13:14;0.00;0.00;0.00
46302;PMS7003;32029;51.358;5.628;2022-08-01T13:15:42;0.00;0.00;0.00
46302;PMS7003;32029;51.358;5.628;2022-08-01T13:18:27;0.00;0.00;0.00
46302;PMS7003;32029;51.358;5.628;2022-08-01T13:21:11;2.00;2.00;1.00
46302;PMS7003;32029;51.358;5.628;2022-08-01T13:24:02;1.00;1.00;1.00
46302;PMS7003;32029;51.358;5.628;2022-08-01T13:26:43;2.00;1.33;1.00
46302;PMS7003;32029;51.358;5.628;2022-08-01T13:29:21;3.00;2.00;1.00
46302;PMS7003;32029;51.358;5.628;2022-08-01T13:31:56;0.80;0.80;0.20
46302;PMS7003;32029;51.358;5.628;2022-08-01T13:34:30;1.00;1.00;1.00
46302;PMS7003;32029;51.358;5.628;2022-08-01T13:36:58;1.00;1.00;1.00
46302;PMS7003;32029;51.358;5.628;2022-08-01T13:39:29;2.00;2.00;1.40
46302;PMS7003;32029;51.358;5.628;2022-08-01T13:42:08;1.00;1.00;1.00
46302;PMS7003;32029;51.358;5.628;2022-08-01T13:44:37;3.40;2.00;2.00
46302;PMS7003;32029;51.358;5.628;2022-08-01T13:47:04;2.33;1.00;1.00
46302;PMS7003;32029;51.358;5.628;2022-08-01T13:49:32;1.80;1.80;1.20
46302;PMS7003;32029;51.358;5.628;2022-08-01T13:51:59;1.67;1.67;1.33
46302;PMS7003;32029;51.358;5.628;2022-08-01T13:54:27;2.00;1.40;1.20
46302;PMS7003;32029;51.358;5.628;2022-08-01T13:56:55;1.00;1.00;1.00
46302;PMS7003;32029;51.358;5.628;2022-08-01T13:59:22;1.00;1.00;1.00
46302;PMS7003;32029;51.358;5.628;2022-08-01T14:01:49;1.33;1.33;1.00
46302;PMS7003;32029;51.358;5.628;2022-08-01T14:04:17;1.00;1.00;1.00
46302;PMS7003;32029;51.358;5.628;2022-08-01T14:06:43;0.00;0.00;0.00
46302;PMS7003;32029;51.358;5.628;2022-08-01T14:09:10;3.00;2.33;2.00
46302;PMS7003;32029;51.358;5.628;2022-08-01T14:11:38;1.80;1.80;1.60
46302;PMS7003;32029;51.358;5.628;2022-08-01T14:14:06;2.40;1.60;1.60
46302;PMS7003;32029;51.358;5.628;2022-08-01T14:16:32;3.33;2.33;2.00
46302;PMS7003;32029;51.358;5.628;2022-08-01T14:18:59;2.67;1.33;1.00
46302;PMS7003;32029;51.358;5.628;2022-08-01T14:21:27;2.00;1.60;1.00
46302;PMS7003;32029;51.358;5.628;2022-08-01T14:23:54;2.00;2.00;1.33
46302;PMS7003;32029;51.358;5.628;2022-08-01T14:26:20;2.33;2.00;1.00
46302;PMS7003;32029;51.358;5.628;2022-08-01T14:28:48;1.60;1.60;1.60
46302;PMS7003;32029;51.358;5.628;2022-08-01T14:31:16;1.20;1.20;1.00
46302;PMS7003;32029;51.358;5.628;2022-08-01T14:33:42;2.33;2.00;1.67
46302;PMS7003;32029;51.358;5.628;2022-08-01T14:36:10;2.40;2.40;2.00
46302;PMS7003;32029;51.358;5.628;2022-08-01T14:38:38;2.00;2.00;1.80
46302;PMS7003;32029;51.358;5.628;2022-08-01T14:41:06;4.20;4.20;4.00
46302;PMS7003;32029;51.358;5.628;2022-08-01T14:43:34;3.40;2.20;2.00
46302;PMS7003;32029;51.358;5.628;2022-08-01T14:46:00;1.33;1.33;1.00
46302;PMS7003;32029;51.358;5.628;2022-08-01T14:48:29;5.00;2.33;2.00
46302;PMS7003;32029;51.358;5.628;2022-08-01T14:50:57;2.80;2.80;2.20
46302;PMS7003;32029;51.358;5.628;2022-08-01T14:53:27;3.60;3.60;3.00
46302;PMS7003;32029;51.358;5.628;2022-08-01T14:55:55;3.00;3.00;3.00
46302;PMS7003;32029;51.358;5.628;2022-08-01T14:58:22;3.00;3.00;2.80
46302;PMS7003;32029;51.358;5.628;2022-08-01T15:00:50;2.20;2.20;2.00
46302;PMS7003;32029;51.358;5.628;2022-08-01T15:03:21;3.20;3.00;2.80
46302;PMS7003;32029;51.358;5.628;2022-08-01T15:05:49;3.00;2.00;2.00
46302;PMS7003;32029;51.358;5.628;2022-08-01T15:08:17;6.20;3.20;3.00
46302;PMS7003;32029;51.358;5.628;2022-08-01T15:10:44;3.00;3.00;3.00
46302;PMS7003;32029;51.358;5.628;2022-08-01T15:13:11;4.00;3.67;3.00
46302;PMS7003;32029;51.358;5.628;2022-08-01T15:15:39;5.00;3.60;3.60
46302;PMS7003;32029;51.358;5.628;2022-08-01T15:18:07;3.00;3.00;2.00